UUDD/DME METAR and TAF weather

Enter ICAO airport designator
Station Type Date Time Source
UUDD METAR 2020/12/06 00:30 UTC NOAA

UUDD 060030Z 18004MPS CAVOK M11/M15 Q1040 R14R/420242 NOSIG


Station Type Date Time Source
UUDD Decoded METAR 2020/12/06 00:30 UTC NOAA

Moscow / Domodedovo, Russia (UUDD) 55-24N 037-54E
Dec 05, 2020 - 07:30 PM EST / 2020.12.06 0030 UTC
Wind: from the S (180 degrees) at 9 MPH (8 KT):0
Visibility: greater than 7 mile(s):0
Temperature: 12 F (-11 C)
Windchill: 0 F (-18 C):1
Dew Point: 5 F (-15 C)
Relative Humidity: 72%
Pressure (altimeter): 30.71 in. Hg (1040 hPa)
ob: UUDD 060030Z 18004MPS CAVOK M11/M15 Q1040 R14R/420242 NOSIG
cycle: 0

Station Type Date Time Source
UUDD TAF 2020/12/05 21:21 UTC NOAA

TAF UUDD 051952Z 0521/0703 16005MPS 9999 SCT020 TXM06/0611Z TNM14/0703Z

Example: see airport list